Time;durP1;ratioP1;P1;durP2;ratioP2;P2;SDS_P1;SDS_P2;PMS_P1;PMS_P2;Temp;Humidity;BMP_temperature;BMP_pressure;BME280_temperature;BME280_humidity;BME280_pressure;Samples;Min_cycle;Max_cycle;Signal;HPM_P1;HPM_P2
2022/06/04 00:02:04;;;;;;;;;;;10.60;93.90;;;;;;6250424;22;20095;-75
2022/06/04 00:04:29;;;;;;;25.10;14.13;;;10.60;94.50;;;;;;6249886;22;19911;-78
2022/06/04 00:06:55;;;;;;;28.00;14.73;;;10.50;94.20;;;;;;6276817;22;20022;-78
2022/06/04 00:09:27;;;;;;;30.33;15.37;;;10.60;94.40;;;;;;6249531;22;20512;-76
2022/06/04 00:17:24;;;;;;;26.88;13.60;;;10.50;94.20;;;;;;6188133;22;20043;-77
2022/06/04 00:19:51;;;;;;;23.92;14.70;;;10.50;93.90;;;;;;6249853;22;20081;-79
2022/06/04 00:22:17;;;;;;;;;;;10.50;94.00;;;;;;6224994;22;20303;-78
2022/06/04 00:24:44;;;;;;;27.52;12.60;;;10.40;94.20;;;;;;6224120;22;19918;-76
2022/06/04 00:27:20;;;;;;;25.98;13.43;;;10.50;94.40;;;;;;6224054;22;20018;-78
2022/06/04 00:29:47;;;;;;;24.58;12.60;;;10.40;94.10;;;;;;6224448;22;20030;-76
2022/06/04 00:32:13;;;;;;;;;;;10.40;94.30;;;;;;6225058;22;20307;-77
2022/06/04 00:34:39;;;;;;;20.75;11.10;;;10.40;94.70;;;;;;6249842;22;19915;-78
2022/06/04 00:37:08;;;;;;;25.45;12.02;;;10.40;94.00;;;;;;6224335;22;20012;-81
2022/06/04 00:39:33;;;;;;;28.63;12.27;;;10.40;94.30;;;;;;6249730;22;20038;-79
2022/06/04 00:42:10;;;;;;;27.90;12.57;;;10.40;94.40;;;;;;6224537;22;20011;-78
2022/06/04 00:45:13;;;;;;;24.42;11.77;;;10.40;94.30;;;;;;6248757;22;20018;-78
2022/06/04 00:47:41;;;;;;;18.20;10.90;;;10.40;94.30;;;;;;6248100;22;20012;-76
2022/06/04 00:50:08;;;;;;;23.42;11.88;;;10.50;94.10;;;;;;6223694;22;20325;-78
2022/06/04 00:52:37;;;;;;;23.67;10.98;;;10.40;94.00;;;;;;6224161;22;20372;-78
2022/06/04 00:55:04;;;;;;;19.58;10.88;;;10.40;94.00;;;;;;6223645;22;20007;-77
2022/06/04 00:58:07;;;;;;;29.83;11.77;;;10.50;94.00;;;;;;6224189;22;20008;-78
2022/06/04 01:00:55;;;;;;;26.13;11.35;;;10.40;94.30;;;;;;6250357;22;20069;-78
2022/06/04 01:03:42;;;;;;;21.40;10.82;;;10.40;94.20;;;;;;6226030;22;20083;-76
2022/06/04 01:06:49;;;;;;;18.27;9.40;;;10.30;94.20;;;;;;6226296;22;20019;-79
2022/06/04 01:09:51;;;;;;;19.15;10.13;;;10.30;94.30;;;;;;6245023;22;20047;-77
2022/06/04 01:12:42;;;;;;;23.85;9.45;;;10.30;94.00;;;;;;6250605;22;20058;-76
2022/06/04 01:15:36;;;;;;;25.20;10.02;;;10.40;93.80;;;;;;6250354;22;20012;-78
2022/06/04 01:18:20;;;;;;;25.65;9.40;;;10.30;94.10;;;;;;6225915;22;20065;-77
2022/06/04 01:21:06;;;;;;;22.83;9.50;;;10.30;94.10;;;;;;6226177;22;20016;-76
2022/06/04 01:24:01;;;;;;;17.55;8.77;;;10.30;94.40;;;;;;6250868;22;20012;-77
2022/06/04 01:27:03;;;;;;;23.23;10.15;;;10.20;94.10;;;;;;6184405;23;20062;-78
2022/06/04 01:30:04;;;;;;;21.63;9.20;;;10.20;94.40;;;;;;6244380;23;20300;-77
2022/06/04 01:32:43;;;;;;;20.00;9.27;;;10.20;94.20;;;;;;6219145;23;20110;-78
2022/06/04 01:35:23;;;;;;;17.77;8.77;;;10.20;94.10;;;;;;6220968;23;20016;-77
2022/06/04 01:38:08;;;;;;;20.15;8.95;;;10.20;93.90;;;;;;6245931;22;20012;-79
2022/06/04 01:43:28;;;;;;;21.42;9.32;;;10.10;94.20;;;;;;6245438;23;20094;-78
2022/06/04 01:45:59;;;;;;;20.13;9.10;;;10.10;94.30;;;;;;6219039;23;20020;-76
2022/06/04 01:48:27;;;;;;;18.38;9.07;;;10.10;94.30;;;;;;6245318;22;20032;-78
2022/06/04 01:50:56;;;;;;;26.95;9.38;;;10.00;94.20;;;;;;6245882;23;20319;-79
2022/06/04 01:53:28;;;;;;;21.85;9.18;;;10.10;94.30;;;;;;6220652;23;20070;-77
2022/06/04 01:55:59;;;;;;;20.75;9.25;;;10.10;94.10;;;;;;6220649;23;20013;-76
2022/06/04 01:58:35;;;;;;;19.00;9.13;;;10.10;94.00;;;;;;6245719;22;20431;-78
2022/06/04 02:01:06;;;;;;;20.48;9.45;;;10.60;94.30;;;;;;6246052;23;20008;-76
2022/06/04 02:03:56;;;;;;;14.18;8.90;;;10.00;94.00;;;;;;6220084;23;20114;-78
2022/06/04 02:06:30;;;;;;;17.73;9.10;;;10.00;94.10;;;;;;6245840;23;20015;-79
2022/06/04 02:09:10;;;;;;;22.65;9.55;;;10.00;94.30;;;;;;6220341;23;20095;-77
2022/06/04 02:11:38;;;;;;;18.00;9.57;;;10.00;94.10;;;;;;6220062;23;20039;-78
2022/06/04 02:14:06;;;;;;;19.13;8.63;;;10.00;94.00;;;;;;6218925;23;20103;-77
2022/06/04 02:17:01;;;;;;;18.75;8.98;;;10.00;94.00;;;;;;6220046;23;20008;-76
2022/06/04 02:19:27;;;;;;;19.60;8.70;;;9.90;94.10;;;;;;6237888;23;20039;-76
2022/06/04 02:21:54;;;;;;;15.57;8.50;;;10.10;94.30;;;;;;6219417;23;20335;-78
2022/06/04 02:24:20;;;;;;;19.42;9.10;;;9.90;94.10;;;;;;6220373;23;20035;-77
2022/06/04 02:26:46;;;;;;;19.95;9.10;;;10.20;94.40;;;;;;6245184;22;20078;-78
2022/06/04 02:29:12;;;;;;;18.83;8.65;;;9.80;94.30;;;;;;6245357;23;20087;-75
2022/06/04 02:31:47;;;;;;;14.10;8.50;;;9.90;94.40;;;;;;6220047;23;20042;-77
2022/06/04 02:34:38;;;;;;;17.83;9.05;;;9.80;94.20;;;;;;6219943;23;20004;-78
2022/06/04 02:37:23;;;;;;;17.92;8.73;;;9.80;94.40;;;;;;6219871;23;20488;-78
2022/06/04 02:40:18;;;;;;;17.55;9.30;;;9.80;94.60;;;;;;6244563;23;20095;-78
2022/06/04 02:43:02;;;;;;;18.17;8.45;;;9.70;94.60;;;;;;6166675;23;20015;-78
2022/06/04 02:45:42;;;;;;;17.55;8.88;;;9.70;94.40;;;;;;6219219;23;20057;-78
2022/06/04 02:48:18;;;;;;;17.35;8.60;;;9.70;94.40;;;;;;6243489;22;20015;-76
2022/06/04 02:50:51;;;;;;;17.25;8.07;;;9.70;94.80;;;;;;6244686;23;20500;-78
2022/06/04 02:53:18;;;;;;;17.52;8.02;;;9.60;94.10;;;;;;6219846;23;20012;-77
2022/06/04 02:56:11;;;;;;;16.77;7.90;;;9.80;94.10;;;;;;6244908;23;20015;-76
2022/06/04 02:58:39;;;;;;;18.45;8.32;;;9.60;94.30;;;;;;6229921;22;20008;-75
2022/06/04 03:01:08;;;;;;;13.95;7.30;;;9.70;94.60;;;;;;6245163;23;20303;-78
2022/06/04 03:03:34;;;;;;;12.88;7.35;;;9.50;94.40;;;;;;6245074;23;20437;-77
2022/06/04 03:06:03;;;;;;;17.30;8.48;;;9.50;94.20;;;;;;6219577;23;20012;-78
2022/06/04 03:08:33;;;;;;;15.52;8.52;;;9.40;94.50;;;;;;6245036;22;20012;-76
2022/06/04 03:10:59;;;;;;;19.20;7.97;;;9.40;94.30;;;;;;6245061;23;20023;-79
2022/06/04 03:13:24;;;;;;;12.80;7.80;;;9.40;94.10;;;;;;6245091;23;20008;-78
2022/06/04 03:15:51;;;;;;;16.65;8.10;;;9.30;94.50;;;;;;6219758;23;20019;-76
2022/06/04 03:18:18;;;;;;;15.57;7.72;;;9.30;94.40;;;;;;6244839;22;20008;-77
2022/06/04 03:20:45;;;;;;;12.75;7.47;;;9.30;94.60;;;;;;6218801;23;20062;-78
2022/06/04 03:23:10;;;;;;;13.85;7.80;;;9.20;94.30;;;;;;6244873;23;20008;-75
2022/06/04 03:25:38;;;;;;;14.70;7.70;;;9.50;94.50;;;;;;6245063;23;20008;-77
2022/06/04 03:28:06;;;;;;;13.45;7.50;;;9.20;94.30;;;;;;6244747;22;20090;-77
2022/06/04 03:30:31;;;;;;;16.33;7.35;;;9.30;94.90;;;;;;6219916;23;20016;-77
2022/06/04 03:32:57;;;;;;;14.18;7.40;;;9.30;94.80;;;;;;6244978;23;20131;-77
2022/06/04 03:35:23;;;;;;;11.47;7.33;;;9.40;94.60;;;;;;6244996;23;20027;-79
2022/06/04 03:37:49;;;;;;;11.07;6.85;;;9.50;94.60;;;;;;6219618;23;20235;-78
2022/06/04 03:40:15;;;;;;;15.97;7.30;;;9.90;94.70;;;;;;6219329;23;20454;-77
2022/06/04 03:42:41;;;;;;;19.00;7.88;;;9.60;94.80;;;;;;6218660;23;20266;-76
2022/06/04 03:45:12;;;;;;;17.30;8.18;;;9.80;94.70;;;;;;6244929;23;20055;-76
2022/06/04 03:47:38;;;;;;;16.23;8.15;;;9.60;94.40;;;;;;6244725;22;20020;-76
2022/06/04 03:50:09;;;;;;;18.55;8.75;;;9.80;94.70;;;;;;6245039;23;20070;-77
2022/06/04 03:52:35;;;;;;;13.20;7.75;;;9.60;94.70;;;;;;6244685;23;20074;-77
2022/06/04 03:55:01;;;;;;;15.15;8.60;;;9.60;94.40;;;;;;6219789;23;20008;-76
2022/06/04 03:57:37;;;;;;;16.88;8.70;;;9.70;94.40;;;;;;6219008;23;20012;-75
2022/06/04 04:00:23;;;;;;;20.25;8.45;;;9.60;94.40;;;;;;6219367;23;20019;-76
2022/06/04 04:02:52;;;;;;;17.42;8.52;;;9.70;94.60;;;;;;6244502;23;20300;-77
2022/06/04 04:05:21;;;;;;;17.13;8.68;;;9.70;94.40;;;;;;6219298;23;20008;-77
2022/06/04 04:07:48;;;;;;;15.23;9.00;;;9.70;94.30;;;;;;6244709;22;20008;-77
2022/06/04 04:10:14;;;;;;;18.73;9.35;;;9.80;94.50;;;;;;6244820;23;20012;-77
2022/06/04 04:12:40;;;;;;;;;;;9.80;94.60;;;;;;6245349;23;20319;-75
2022/06/04 04:15:07;;;;;;;16.25;9.65;;;9.90;94.60;;;;;;6219133;23;19978;-77
2022/06/04 04:17:35;;;;;;;16.63;9.98;;;10.00;94.40;;;;;;6244837;22;20012;-77
2022/06/04 04:20:01;;;;;;;20.25;9.63;;;10.10;94.30;;;;;;6244490;23;20004;-77
2022/06/04 04:22:26;;;;;;;16.10;10.10;;;10.10;94.30;;;;;;6244685;23;20549;-80
2022/06/04 04:25:20;;;;;;;17.40;9.33;;;10.20;94.40;;;;;;6221148;23;20012;-75
2022/06/04 04:31:27;;;;;;;14.43;9.27;;;10.20;94.30;;;;;;6123823;23;20076;-80
2022/06/04 04:33:53;;;;;;;19.33;9.25;;;10.50;94.00;;;;;;6075070;23;20010;-79
2022/06/04 04:36:19;;;;;;;17.10;8.73;;;10.40;94.20;;;;;;6099752;23;20014;-78
2022/06/04 04:38:44;;;;;;;14.65;8.10;;;10.50;94.00;;;;;;6141337;22;20087;-81
2022/06/04 04:41:17;;;;;;;13.38;7.70;;;10.50;94.00;;;;;;6225613;22;20031;-80
2022/06/04 04:43:45;;;;;;;10.65;7.97;;;10.60;94.10;;;;;;6201552;22;20326;-83
2022/06/04 04:46:13;;;;;;;11.23;6.85;;;10.60;93.80;;;;;;6201425;22;20037;-80
2022/06/04 04:48:41;;;;;;;12.00;7.30;;;10.50;93.70;;;;;;6225115;22;20003;-82
2022/06/04 04:51:14;;;;;;;11.68;7.10;;;10.80;93.70;;;;;;6225132;22;20011;-80
2022/06/04 04:53:47;;;;;;;10.82;6.53;;;10.90;93.70;;;;;;6250901;22;20011;-82
2022/06/04 04:56:21;;;;;;;13.13;6.32;;;11.20;93.70;;;;;;6250990;22;20029;-80
2022/06/04 04:58:50;;;;;;;10.15;6.95;;;11.10;93.40;;;;;;6202197;22;20012;-81
2022/06/04 05:01:22;;;;;;;13.32;5.95;;;11.30;93.30;;;;;;6251489;22;20011;-79
2022/06/04 05:03:48;;;;;;;9.40;6.05;;;11.40;93.10;;;;;;6252127;22;20012;-80
2022/06/04 05:06:16;;;;;;;10.85;5.40;;;11.30;92.90;;;;;;6226441;22;20491;-83
2022/06/04 05:08:45;;;;;;;15.23;6.10;;;11.30;92.90;;;;;;6251762;22;20354;-82
2022/06/04 05:11:18;;;;;;;10.48;5.78;;;11.40;92.60;;;;;;6251762;22;20037;-80
2022/06/04 05:13:49;;;;;;;8.70;5.47;;;11.50;92.50;;;;;;6252256;22;20012;-81
2022/06/04 05:16:24;;;;;;;10.70;5.70;;;11.50;92.20;;;;;;6252970;22;20098;-80
2022/06/04 05:18:50;;;;;;;9.77;6.07;;;11.60;91.60;;;;;;6251750;22;20011;-80
2022/06/04 05:21:23;;;;;;;11.13;6.57;;;11.70;91.60;;;;;;6251904;22;20008;-81
2022/06/04 05:23:57;;;;;;;7.78;5.05;;;11.70;91.80;;;;;;6251156;22;20433;-81
2022/06/04 05:26:23;;;;;;;7.93;4.55;;;11.70;91.50;;;;;;6251868;22;20008;-80
2022/06/04 05:28:50;;;;;;;9.07;4.60;;;12.00;91.20;;;;;;6251326;22;20465;-81
2022/06/04 05:31:17;;;;;;;10.80;4.18;;;12.20;90.80;;;;;;6251376;22;20047;-80
2022/06/04 05:33:43;;;;;;;7.72;4.55;;;12.40;90.60;;;;;;6251333;22;20011;-80
2022/06/04 05:36:09;;;;;;;8.02;4.82;;;12.60;90.60;;;;;;6226360;22;20012;-82
2022/06/04 05:38:37;;;;;;;7.03;4.22;;;12.70;90.20;;;;;;6251238;22;20047;-81
2022/06/04 05:41:06;;;;;;;8.65;4.45;;;12.80;88.70;;;;;;6251397;22;20039;-82
2022/06/04 05:43:33;;;;;;;10.02;4.28;;;13.00;88.30;;;;;;6226528;22;20043;-80
2022/06/04 05:46:08;;;;;;;8.13;4.82;;;13.10;87.00;;;;;;6253353;22;20426;-81
2022/06/04 05:48:39;;;;;;;8.45;4.80;;;13.20;86.60;;;;;;6249833;22;20409;-81
2022/06/04 05:51:05;;;;;;;7.88;4.68;;;13.30;87.60;;;;;;6251186;22;20014;-81
2022/06/04 05:53:31;;;;;;;7.97;4.38;;;13.40;86.50;;;;;;6250800;22;20012;-81
2022/06/04 05:55:57;;;;;;;9.48;4.80;;;13.50;86.50;;;;;;6225571;22;20015;-81
2022/06/04 05:58:22;;;;;;;18.80;4.68;;;13.40;86.70;;;;;;6225421;22;20308;-81
2022/06/04 06:00:48;;;;;;;9.45;4.65;;;13.30;85.80;;;;;;6251103;22;20011;-81
2022/06/04 06:03:14;;;;;;;8.38;4.60;;;13.40;85.20;;;;;;6250539;22;20015;-82
2022/06/04 06:05:43;;;;;;;9.68;4.80;;;13.60;84.80;;;;;;6225287;22;20003;-82
2022/06/04 06:08:15;;;;;;;6.30;4.20;;;13.50;85.10;;;;;;6250785;22;20008;-81
2022/06/04 06:10:44;;;;;;;9.25;4.70;;;13.60;84.10;;;;;;6251673;22;20087;-80
2022/06/04 06:13:13;;;;;;;11.95;4.78;;;13.60;82.80;;;;;;6226493;22;20012;-79
2022/06/04 06:15:39;;;;;;;9.00;4.22;;;13.60;84.20;;;;;;6226011;22;20066;-80
2022/06/04 06:18:08;;;;;;;11.77;4.45;;;13.70;84.10;;;;;;6251398;22;20011;-81
2022/06/04 06:20:37;;;;;;;8.95;4.55;;;13.80;83.40;;;;;;6226004;22;20065;-79
2022/06/04 06:23:09;;;;;;;7.90;4.28;;;13.80;82.80;;;;;;6251019;22;20012;-79
2022/06/04 06:25:35;;;;;;;8.95;4.60;;;14.00;82.40;;;;;;6225565;22;20008;-80
2022/06/04 06:28:01;;;;;;;11.60;4.07;;;13.90;82.30;;;;;;6250925;22;20318;-82
2022/06/04 06:30:27;;;;;;;9.45;4.38;;;14.00;80.60;;;;;;6226450;22;20007;-82
2022/06/04 06:32:58;;;;;;;7.00;4.63;;;14.00;81.40;;;;;;6225752;22;20007;-81
2022/06/04 06:35:26;;;;;;;7.88;4.03;;;14.10;81.50;;;;;;6251204;22;20311;-82
2022/06/04 06:37:53;;;;;;;8.30;3.92;;;14.20;80.70;;;;;;6226051;22;20069;-80
2022/06/04 06:40:22;;;;;;;7.18;4.45;;;14.50;80.10;;;;;;6249844;22;20007;-81
2022/06/04 06:42:48;;;;;;;8.63;4.20;;;14.70;79.80;;;;;;6225897;22;20449;-79
2022/06/04 06:45:14;;;;;;;9.73;4.55;;;14.60;78.10;;;;;;6251334;22;20011;-80
2022/06/04 06:47:40;;;;;;;10.32;4.50;;;14.70;78.40;;;;;;6225449;22;20038;-81
2022/06/04 06:50:07;;;;;;;11.23;4.30;;;14.80;79.10;;;;;;6251786;22;20011;-80
2022/06/04 06:52:40;;;;;;;7.07;4.03;;;14.90;77.70;;;;;;6252128;22;20077;-79
2022/06/04 06:55:06;;;;;;;7.93;4.32;;;14.90;78.00;;;;;;6225551;22;20026;-82
2022/06/04 06:57:32;;;;;;;10.23;3.95;;;15.10;78.90;;;;;;6225108;22;20008;-81
2022/06/04 07:00:01;;;;;;;6.20;3.40;;;15.30;77.60;;;;;;6249491;22;20046;-81
2022/06/04 07:02:27;;;;;;;7.82;4.05;;;15.50;76.30;;;;;;6225376;22;20015;-81
2022/06/04 07:04:53;;;;;;;9.38;4.03;;;15.50;75.80;;;;;;6224760;22;20431;-81
2022/06/04 07:07:18;;;;;;;10.57;4.28;;;15.50;75.80;;;;;;6249631;22;20008;-82
2022/06/04 07:09:44;;;;;;;10.70;3.85;;;15.50;74.60;;;;;;6225030;22;20004;-83
2022/06/04 07:12:12;;;;;;;7.70;3.90;;;15.40;74.80;;;;;;6250719;22;20035;-81
2022/06/04 07:14:40;;;;;;;7.18;3.80;;;15.60;75.50;;;;;;6250227;22;20449;-80
2022/06/04 07:17:11;;;;;;;8.50;3.83;;;15.70;74.90;;;;;;6225325;22;20083;-82
2022/06/04 07:19:40;;;;;;;6.15;3.55;;;15.70;74.70;;;;;;6200809;22;20077;-80
2022/06/04 07:22:10;;;;;;;8.48;3.42;;;16.00;73.30;;;;;;6224699;22;20086;-81
2022/06/04 07:24:39;;;;;;;6.53;3.65;;;16.10;72.70;;;;;;6224761;22;20004;-79
2022/06/04 07:27:13;;;;;;;7.68;3.90;;;16.10;72.80;;;;;;6224796;22;20033;-79
2022/06/04 07:29:39;;;;;;;5.95;3.50;;;16.10;74.00;;;;;;6250637;22;20007;-79
2022/06/04 07:32:09;;;;;;;7.22;3.30;;;16.30;72.80;;;;;;6250163;22;20050;-78
2022/06/04 07:34:39;;;;;;;7.85;4.03;;;16.40;71.80;;;;;;6224860;22;20003;-80
2022/06/04 07:37:07;;;;;;;7.75;3.22;;;16.60;72.30;;;;;;6250089;22;20318;-77
2022/06/04 07:39:33;;;;;;;8.35;3.83;;;16.60;71.00;;;;;;6250215;22;20008;-79
2022/06/04 07:41:59;;;;;;;6.82;3.35;;;16.60;71.30;;;;;;6249901;22;20034;-78
2022/06/04 07:44:25;;;;;;;8.55;3.30;;;16.40;71.90;;;;;;6224745;22;20011;-76
2022/06/04 07:46:53;;;;;;;7.88;3.95;;;16.30;71.30;;;;;;6250007;22;20453;-77
2022/06/04 07:49:23;;;;;;;8.38;4.32;;;16.40;71.40;;;;;;6249676;22;20023;-78
2022/06/04 07:51:49;;;;;;;7.50;3.78;;;16.60;71.70;;;;;;6224538;22;20052;-79
2022/06/04 07:54:15;;;;;;;8.88;4.22;;;16.80;70.90;;;;;;6249919;22;20015;-77
2022/06/04 07:56:41;;;;;;;8.10;3.92;;;16.80;70.10;;;;;;6250030;22;20047;-77
2022/06/04 07:59:13;;;;;;;8.38;4.07;;;16.90;70.60;;;;;;6249617;22;20438;-78
2022/06/04 08:01:39;;;;;;;7.82;3.90;;;17.00;70.10;;;;;;6250124;22;20011;-77
2022/06/04 08:04:05;;;;;;;8.18;4.05;;;17.10;69.20;;;;;;6250983;22;20008;-77
2022/06/04 08:06:31;;;;;;;10.90;4.30;;;17.10;70.30;;;;;;6251370;22;20015;-77
2022/06/04 08:09:00;;;;;;;14.02;4.45;;;17.20;69.90;;;;;;6249190;22;20008;-78
2022/06/04 08:22:41;;;;;;;6.75;3.70;;;17.10;68.90;;;;;;6154848;23;20112;-71
2022/06/04 08:33:03;;;;;;;5.85;3.40;;;17.40;67.80;;;;;;6152973;23;20347;-73
2022/06/04 08:35:28;;;;;;;8.32;3.80;;;17.50;67.70;;;;;;6153837;23;20104;-69
2022/06/04 08:37:54;;;;;;;6.32;3.20;;;17.10;67.40;;;;;;6145901;23;20055;-76
2022/06/04 08:41:19;;;;;;;9.23;4.00;;;17.60;67.50;;;;;;6219534;23;20047;-68
2022/06/04 08:43:58;;;;;;;8.95;4.00;;;17.60;67.20;;;;;;6245231;23;20138;-72
2022/06/04 08:46:51;;;;;;;9.32;4.18;;;17.70;65.80;;;;;;6219707;23;20016;-68
2022/06/04 08:59:17;;;;;;;8.45;3.40;;;17.60;65.60;;;;;;6246352;22;20058;-73
2022/06/04 09:01:59;;;;;;;6.10;3.60;;;17.80;67.10;;;;;;6244971;23;20055;-73
2022/06/04 09:04:48;;;;;;;7.45;3.40;;;17.90;65.80;;;;;;6195898;23;20019;-69
2022/06/04 09:07:20;;;;;;;6.10;3.30;;;18.10;64.90;;;;;;6246639;22;20024;-69
2022/06/04 09:09:52;;;;;;;5.60;3.35;;;18.20;65.80;;;;;;6244733;23;20011;-69
2022/06/04 09:12:39;;;;;;;8.50;3.75;;;18.20;64.70;;;;;;6244688;23;20443;-70
2022/06/04 09:15:19;;;;;;;9.68;4.22;;;17.90;66.80;;;;;;6219130;23;20015;-69
2022/06/04 09:17:48;;;;;;;7.10;3.78;;;17.80;66.50;;;;;;6220386;23;20023;-69
2022/06/04 09:20:36;;;;;;;8.40;3.30;;;17.70;66.80;;;;;;6221086;23;20039;-71
2022/06/04 09:23:11;;;;;;;7.22;3.45;;;17.70;64.80;;;;;;6246364;23;20043;-69
2022/06/04 09:26:13;;;;;;;7.45;4.35;;;17.70;66.60;;;;;;6246175;23;20087;-69
2022/06/04 09:29:05;;;;;;;8.48;4.10;;;17.60;66.70;;;;;;6247515;22;20051;-69
2022/06/04 09:31:47;;;;;;;9.63;4.63;;;17.70;67.30;;;;;;6245960;23;20422;-69
2022/06/04 09:34:19;;;;;;;7.72;4.15;;;17.60;68.30;;;;;;6221068;23;20442;-70
2022/06/04 09:36:47;;;;;;;7.65;4.00;;;17.60;68.10;;;;;;6246340;22;20012;-68
2022/06/04 09:40:00;;;;;;;;;;;;;;;;;;;;;
2022/06/04 09:43:10;;;;;;;9.75;3.95;;;17.50;68.30;;;;;;6244684;23;20008;-70
2022/06/04 09:45:38;;;;;;;6.85;3.35;;;17.50;67.20;;;;;;6244664;23;20434;-70
2022/06/04 09:48:51;;;;;;;8.77;3.78;;;17.50;66.30;;;;;;6244407;22;20099;-75
2022/06/04 09:51:38;;;;;;;13.65;4.20;;;17.70;67.60;;;;;;6218963;23;20078;-72
2022/06/04 09:54:33;;;;;;;8.23;3.55;;;17.80;66.80;;;;;;6244704;23;20004;-71
2022/06/04 09:57:24;;;;;;;9.27;4.40;;;17.80;65.90;;;;;;6219106;23;20039;-71
2022/06/04 10:03:39;;;;;;;11.13;3.92;;;18.00;68.60;;;;;;6163994;22;20027;-68
2022/06/04 10:06:12;;;;;;;8.20;3.42;;;18.00;67.20;;;;;;6244751;23;20331;-74
2022/06/04 10:23:51;;;;;;;10.75;3.50;;;18.30;68.30;;;;;;6245604;23;20332;-67
2022/06/04 10:26:49;;;;;;;6.57;3.25;;;18.30;66.70;;;;;;6219545;23;20377;-67
2022/06/04 10:29:58;;;;;;;8.13;3.35;;;18.00;65.80;;;;;;6217768;23;20020;-70
2022/06/04 10:33:13;;;;;;;7.50;3.60;;;18.10;66.20;;;;;;6220619;23;20049;-69
2022/06/04 10:36:09;;;;;;;9.18;4.05;;;17.80;65.60;;;;;;6244181;23;20455;-70
2022/06/04 10:38:43;;;;;;;9.05;3.97;;;17.80;67.10;;;;;;6244271;22;20358;-70
2022/06/04 10:41:35;;;;;;;9.63;3.70;;;17.70;66.20;;;;;;6245925;22;20419;-70
2022/06/04 10:44:22;;;;;;;7.63;3.72;;;18.10;68.80;;;;;;6244241;23;20004;-77
2022/06/04 10:47:05;;;;;;;11.40;3.92;;;18.20;67.70;;;;;;6244657;23;20023;-78
2022/06/04 11:14:44;;;;;;;10.80;3.63;;;18.50;67.40;;;;;;6188027;23;20092;-68
2022/06/04 11:17:44;;;;;;;9.35;4.18;;;18.50;67.50;;;;;;6188338;23;20020;-74
2022/06/04 11:20:12;;;;;;;9.52;4.53;;;18.60;67.70;;;;;;6158734;23;20017;-71
2022/06/04 11:22:42;;;;;;;10.45;4.07;;;18.20;67.30;;;;;;6184729;23;20009;-69
2022/06/04 11:25:32;;;;;;;10.50;3.95;;;18.50;67.00;;;;;;6158548;23;20009;-69
2022/06/04 11:28:23;;;;;;;12.35;4.63;;;18.40;66.70;;;;;;6183228;23;20013;-71
2022/06/04 11:31:13;;;;;;;8.73;4.35;;;18.40;66.40;;;;;;6185254;23;20024;-68
2022/06/04 11:33:53;;;;;;;12.82;5.03;;;18.60;67.80;;;;;;6158945;23;20420;-72
2022/06/04 11:36:38;;;;;;;8.57;4.10;;;18.80;66.40;;;;;;6158377;23;20099;-69
2022/06/04 11:39:34;;;;;;;12.85;5.05;;;18.70;65.80;;;;;;6183190;23;20012;-70
2022/06/04 11:42:18;;;;;;;10.48;4.18;;;18.70;66.70;;;;;;6158457;23;20020;-72
2022/06/04 11:44:54;;;;;;;9.52;4.15;;;18.80;64.70;;;;;;6183553;23;20375;-75
2022/06/04 11:47:58;;;;;;;12.20;4.28;;;18.70;66.40;;;;;;6183109;23;20009;-74
2022/06/04 11:50:38;;;;;;;8.88;4.30;;;18.90;66.40;;;;;;6114009;23;20013;-71
2022/06/04 11:53:39;;;;;;;8.77;4.22;;;19.00;65.30;;;;;;6158324;23;20063;-73
2022/06/04 11:56:16;;;;;;;9.57;4.40;;;19.00;65.40;;;;;;6160310;23;20070;-77
2022/06/04 11:59:04;;;;;;;8.57;4.20;;;19.20;65.00;;;;;;6159701;23;20009;-75
2022/06/04 12:01:40;;;;;;;;;;;19.10;63.80;;;;;;6160695;23;20012;-78
2022/06/04 12:04:24;;;;;;;8.60;4.00;;;18.70;64.10;;;;;;6160209;23;19908;-78
2022/06/04 12:07:00;;;;;;;8.00;4.30;;;18.70;64.80;;;;;;6160650;23;20035;-79
2022/06/04 12:09:48;;;;;;;13.45;4.30;;;18.50;64.90;;;;;;6185938;23;20083;-76
2022/06/04 12:12:39;;;;;;;13.98;4.40;;;18.70;65.80;;;;;;6187846;23;20012;-77
2022/06/04 12:15:32;;;;;;;12.13;5.18;;;18.60;66.00;;;;;;6164664;23;20304;-75
2022/06/04 12:18:20;;;;;;;15.93;4.47;;;18.40;64.80;;;;;;6188046;23;20023;-70
2022/06/04 12:26:44;;;;;;;11.55;4.47;;;18.40;64.40;;;;;;6187986;23;20017;-71
2022/06/04 12:29:28;;;;;;;10.97;4.00;;;18.40;66.30;;;;;;6139561;23;20150;-71
2022/06/04 12:31:59;;;;;;;11.70;4.55;;;18.30;67.30;;;;;;6163509;23;20012;-71
2022/06/04 12:34:31;;;;;;;10.38;4.97;;;18.50;66.50;;;;;;6188392;23;20150;-70
2022/06/04 12:36:57;;;;;;;13.02;4.88;;;18.10;66.60;;;;;;6163063;23;20009;-70
2022/06/04 12:39:40;;;;;;;20.00;5.05;;;18.00;68.10;;;;;;6188074;23;20439;-71
2022/06/04 12:42:23;;;;;;;12.20;4.90;;;18.20;68.00;;;;;;6188223;23;20331;-68
2022/06/04 12:48:28;;;;;;;10.32;4.55;;;18.40;66.20;;;;;;6186661;23;20048;-70
2022/06/04 12:51:58;;;;;;;13.20;5.05;;;18.40;66.00;;;;;;6188135;23;20366;-73
2022/06/04 12:54:41;;;;;;;11.55;4.00;;;18.00;66.90;;;;;;6064093;23;20057;-71
2022/06/04 12:57:28;;;;;;;7.80;3.63;;;18.20;65.40;;;;;;6152965;23;20009;-70
2022/06/04 13:03:47;;;;;;;15.10;4.28;;;18.20;66.30;;;;;;6126428;23;20014;-75
2022/06/04 13:06:58;;;;;;;10.68;4.57;;;18.00;66.30;;;;;;6104385;23;20097;-73
2022/06/04 13:09:38;;;;;;;12.95;4.10;;;18.10;67.20;;;;;;6116753;23;20013;-71
2022/06/04 13:42:09;;;;;;;13.63;3.78;;;18.90;64.90;;;;;;6278100;22;20019;-75
2022/06/04 13:48:39;;;;;;;10.05;2.88;;;18.90;64.30;;;;;;6152440;23;20436;-75
2022/06/04 13:54:56;;;;;;;11.02;3.42;;;19.00;66.90;;;;;;6276696;22;20010;-73
2022/06/04 13:57:27;;;;;;;8.25;2.75;;;19.30;64.90;;;;;;6224429;22;20049;-73
2022/06/04 14:00:00;;;;;;;8.10;3.08;;;19.30;64.10;;;;;;6249649;22;20082;-75
2022/06/04 14:02:49;;;;;;;13.50;3.28;;;19.00;65.50;;;;;;6249691;22;20011;-70
2022/06/04 14:08:49;;;;;;;10.70;2.75;;;19.20;64.60;;;;;;6248985;22;20085;-73
2022/06/04 14:11:37;;;;;;;7.22;2.63;;;19.00;63.40;;;;;;6248660;22;20016;-71
2022/06/04 14:14:42;;;;;;;8.35;2.70;;;19.30;62.90;;;;;;6249999;22;20319;-77
2022/06/04 14:17:38;;;;;;;8.05;2.42;;;19.50;64.00;;;;;;6224705;22;20011;-78
2022/06/04 14:20:34;;;;;;;7.95;3.08;;;19.30;63.00;;;;;;6248754;22;20056;-74
2022/06/04 14:23:02;;;;;;;9.75;2.75;;;19.50;62.70;;;;;;6224091;22;20004;-77
2022/06/04 14:26:02;;;;;;;7.50;2.40;;;19.20;64.30;;;;;;6249427;22;20012;-76
2022/06/04 14:28:57;;;;;;;11.40;3.25;;;19.20;62.30;;;;;;6223874;22;20444;-76
2022/06/04 14:31:42;;;;;;;10.98;3.10;;;19.30;63.90;;;;;;6246175;22;20086;-74
2022/06/04 14:34:09;;;;;;;10.93;2.97;;;19.50;63.60;;;;;;6224357;22;20464;-77
2022/06/04 14:36:49;;;;;;;7.30;2.58;;;19.60;63.50;;;;;;6249110;22;20153;-79
2022/06/04 14:39:22;;;;;;;9.57;2.50;;;19.60;65.10;;;;;;6248800;22;20007;-74
2022/06/04 14:42:20;;;;;;;10.32;2.90;;;19.60;63.60;;;;;;6248542;22;20021;-75
2022/06/04 14:44:55;;;;;;;10.10;2.60;;;19.60;63.80;;;;;;6224142;22;20052;-75
2022/06/04 14:47:28;;;;;;;9.30;2.78;;;19.60;63.40;;;;;;6223891;22;20013;-77
2022/06/04 14:50:27;;;;;;;7.60;2.78;;;19.50;62.20;;;;;;6223835;22;20043;-77
2022/06/04 14:52:57;;;;;;;7.13;2.15;;;19.50;62.40;;;;;;6224350;22;20012;-77
2022/06/04 14:55:46;;;;;;;8.38;2.55;;;19.70;62.60;;;;;;6248325;22;20050;-77
2022/06/04 14:58:49;;;;;;;12.45;3.35;;;19.70;62.60;;;;;;6248531;22;20436;-74
2022/06/04 15:01:33;;;;;;;9.18;2.78;;;19.90;60.40;;;;;;6220750;22;20072;-78
2022/06/04 15:04:22;;;;;;;10.10;2.72;;;20.30;60.60;;;;;;6223867;22;20016;-77
2022/06/04 15:07:29;;;;;;;6.18;2.53;;;20.40;59.60;;;;;;6248463;22;20012;-75
2022/06/04 15:10:20;;;;;;;5.72;2.40;;;20.30;59.70;;;;;;6249837;22;20008;-78
2022/06/04 15:13:11;;;;;;;7.88;2.50;;;19.80;60.90;;;;;;6225110;22;20011;-78
2022/06/04 15:16:36;;;;;;;7.03;2.58;;;20.40;59.30;;;;;;6249990;22;20066;-79
2022/06/04 15:19:25;;;;;;;7.22;3.10;;;20.60;58.90;;;;;;6104312;23;20021;-79
2022/06/04 15:22:26;;;;;;;9.93;3.15;;;20.70;58.70;;;;;;6224972;22;20007;-79
2022/06/04 15:25:10;;;;;;;15.55;8.88;;;20.80;58.10;;;;;;6249689;22;20095;-78
2022/06/04 15:27:52;;;;;;;12.98;4.90;;;20.70;57.70;;;;;;6224179;22;20086;-79
2022/06/04 15:36:19;;;;;;;12.00;3.35;;;20.60;58.20;;;;;;6249616;22;20011;-78
2022/06/04 15:39:20;;;;;;;10.27;3.25;;;20.40;59.00;;;;;;6249521;22;20014;-79
2022/06/04 15:42:04;;;;;;;7.18;3.17;;;20.40;59.60;;;;;;6250555;22;20369;-79
2022/06/04 15:44:30;;;;;;;9.85;3.75;;;20.70;57.60;;;;;;6224372;22;20008;-78
2022/06/04 15:47:11;;;;;;;11.63;3.55;;;20.40;57.60;;;;;;6224817;22;20023;-78
2022/06/04 15:55:53;;;;;;;9.05;3.20;;;20.60;58.10;;;;;;6249648;22;20070;-78
2022/06/04 15:58:46;;;;;;;6.75;2.80;;;20.30;58.70;;;;;;6224483;22;20137;-78
2022/06/04 16:01:24;;;;;;;6.97;2.78;;;21.20;57.00;;;;;;6224742;22;20093;-78
2022/06/04 16:04:01;;;;;;;6.93;3.30;;;20.80;57.10;;;;;;6249472;22;20014;-79
2022/06/04 16:06:30;;;;;;;8.05;2.85;;;21.20;56.70;;;;;;6249629;22;20439;-79